createdAt,value
2018-08-07T00:01:55.082Z,24.80
2018-08-07T00:06:57.278Z,24.80
2018-08-07T00:11:59.417Z,24.20
2018-08-07T00:17:01.606Z,24.00
2018-08-07T00:22:03.936Z,24.10
2018-08-07T00:27:06.117Z,23.70
2018-08-07T00:32:08.494Z,23.90
2018-08-07T00:37:10.680Z,24.10
2018-08-07T00:42:12.874Z,23.70
2018-08-07T00:47:15.029Z,23.60
2018-08-07T00:52:17.202Z,23.40
2018-08-07T00:57:19.514Z,23.30
2018-08-07T01:02:21.730Z,23.20
2018-08-07T01:07:23.963Z,23.20
2018-08-07T01:12:26.157Z,23.30
2018-08-07T01:17:28.378Z,23.70
2018-08-07T01:22:30.581Z,23.60
2018-08-07T01:27:32.813Z,23.60
2018-08-07T01:32:35.353Z,22.90
2018-08-07T01:37:38.151Z,23.10
2018-08-07T01:42:40.843Z,23.00
2018-08-07T01:47:43.054Z,23.00
2018-08-07T01:52:45.281Z,22.80
2018-08-07T01:57:47.488Z,22.30
2018-08-07T02:02:50.106Z,22.60
2018-08-07T02:07:52.292Z,22.50
2018-08-07T02:12:54.453Z,22.50
2018-08-07T02:17:56.631Z,22.10
2018-08-07T02:22:58.810Z,22.30
2018-08-07T02:28:00.982Z,22.40
2018-08-07T02:33:03.171Z,22.30
2018-08-07T02:38:05.362Z,22.10
2018-08-07T02:43:07.841Z,22.40
2018-08-07T02:48:09.978Z,22.30
2018-08-07T02:53:12.181Z,22.20
2018-08-07T02:58:14.341Z,22.30
2018-08-07T03:03:16.502Z,22.00
2018-08-07T03:08:18.681Z,22.20
2018-08-07T03:13:20.892Z,22.20
2018-08-07T03:18:23.078Z,21.90
2018-08-07T03:23:25.257Z,21.60
2018-08-07T03:33:36.401Z,21.70
2018-08-07T03:38:38.597Z,21.60
2018-08-07T03:43:40.794Z,21.40
2018-08-07T03:48:42.994Z,21.50
2018-08-07T03:53:45.187Z,21.30
2018-08-07T03:58:47.364Z,21.80
2018-08-07T04:03:49.555Z,21.60
2018-08-07T04:08:51.710Z,21.40
2018-08-07T04:13:53.878Z,21.20
2018-08-07T04:18:56.048Z,21.20
2018-08-07T04:23:58.206Z,21.40
2018-08-07T04:29:00.370Z,21.60
2018-08-07T04:34:02.517Z,21.40
2018-08-07T04:39:07.317Z,21.60
2018-08-07T04:44:09.650Z,22.00
2018-08-07T04:49:11.828Z,22.30
2018-08-07T04:54:14.000Z,22.60
2018-08-07T04:59:16.140Z,22.50
2018-08-07T05:09:20.499Z,22.10
2018-08-07T05:14:22.658Z,22.60
2018-08-07T05:19:24.815Z,22.90
2018-08-07T05:24:27.008Z,23.20
2018-08-07T05:29:29.158Z,23.40
2018-08-07T05:34:31.382Z,23.40
2018-08-07T05:39:33.623Z,23.30
2018-08-07T05:44:35.813Z,23.20
2018-08-07T05:49:37.969Z,23.60
2018-08-07T05:54:40.142Z,23.50
2018-08-07T05:59:42.309Z,24.40
2018-08-07T06:04:44.453Z,25.00
2018-08-07T06:09:46.663Z,25.40
2018-08-07T06:14:48.873Z,26.00
2018-08-07T06:19:51.053Z,26.10
2018-08-07T06:24:53.260Z,26.50
2018-08-07T06:29:55.457Z,26.70
2018-08-07T06:34:57.641Z,26.80
2018-08-07T06:39:59.824Z,27.10
2018-08-07T06:45:02.074Z,27.30
2018-08-07T06:50:07.749Z,27.60
2018-08-07T06:55:10.557Z,27.90
2018-08-07T07:00:22.857Z,28.40
2018-08-07T07:05:25.057Z,27.90
2018-08-07T07:10:27.203Z,29.10
2018-08-07T07:15:29.379Z,28.10
2018-08-07T07:20:31.522Z,27.80
2018-08-07T07:25:33.665Z,28.90
2018-08-07T07:30:35.834Z,29.50
2018-08-07T07:35:38.025Z,29.50
2018-08-07T07:40:40.226Z,29.90
2018-08-07T07:45:42.380Z,30.40
2018-08-07T07:50:44.557Z,30.70
2018-08-07T07:55:46.760Z,31.00
2018-08-07T08:00:48.941Z,31.10
2018-08-07T08:05:51.129Z,31.60
2018-08-07T08:10:53.418Z,32.20
2018-08-07T08:15:55.595Z,31.50
2018-08-07T08:20:57.783Z,30.50
2018-08-07T08:25:59.950Z,30.50
2018-08-07T08:31:02.116Z,32.00
2018-08-07T08:36:04.297Z,32.40
2018-08-07T08:41:06.445Z,32.80
2018-08-07T08:46:08.657Z,32.80
2018-08-07T08:51:10.893Z,32.90
2018-08-07T08:56:13.053Z,33.40
2018-08-07T09:01:15.241Z,33.20
2018-08-07T09:06:17.415Z,32.80
2018-08-07T09:11:19.625Z,32.60
2018-08-07T09:16:21.786Z,32.40
2018-08-07T09:21:23.913Z,33.50
2018-08-07T09:26:26.129Z,33.70
2018-08-07T09:31:28.413Z,34.20
2018-08-07T09:36:30.589Z,33.00
2018-08-07T09:41:32.881Z,33.80
2018-08-07T09:46:35.101Z,34.30
2018-08-07T09:51:38.015Z,34.40
2018-08-07T09:57:13.105Z,34.20
2018-08-07T10:02:49.593Z,33.80
2018-08-07T10:07:51.745Z,33.60
2018-08-07T10:12:53.889Z,34.90
2018-08-07T10:17:56.098Z,34.00
2018-08-07T10:22:58.274Z,33.30
2018-08-07T10:28:00.409Z,34.60
2018-08-07T10:33:02.617Z,34.10
2018-08-07T10:38:04.791Z,34.70
2018-08-07T10:43:07.094Z,35.50
2018-08-07T10:48:09.173Z,34.70
2018-08-07T10:53:11.312Z,35.60
2018-08-07T10:58:13.496Z,35.60
2018-08-07T11:03:15.717Z,35.50
2018-08-07T11:08:17.910Z,35.10
2018-08-07T11:13:20.112Z,34.70
2018-08-07T11:18:22.281Z,34.30
2018-08-07T11:23:24.475Z,35.30
2018-08-07T11:28:26.642Z,35.40
2018-08-07T11:33:28.825Z,34.70
2018-08-07T11:38:31.046Z,35.30
2018-08-07T11:43:33.226Z,35.40
2018-08-07T11:48:35.420Z,35.70
2018-08-07T11:53:37.584Z,35.30
2018-08-07T11:58:39.753Z,35.00
2018-08-07T12:03:41.909Z,35.00
2018-08-07T12:08:44.082Z,35.00
2018-08-07T12:13:46.230Z,36.10
2018-08-07T12:18:48.378Z,35.40
2018-08-07T12:23:50.528Z,36.40
2018-08-07T12:28:52.692Z,36.50
2018-08-07T12:33:54.846Z,35.90
2018-08-07T12:38:56.997Z,35.70
2018-08-07T12:43:59.160Z,35.10
2018-08-07T12:49:01.297Z,35.10
2018-08-07T12:54:03.445Z,34.80
2018-08-07T12:59:05.641Z,34.90
2018-08-07T13:04:08.048Z,34.70
2018-08-07T13:09:11.852Z,34.20
2018-08-07T13:14:14.066Z,34.20
2018-08-07T13:19:16.242Z,34.30
2018-08-07T13:24:18.412Z,34.10
2018-08-07T13:29:20.577Z,34.10
2018-08-07T13:34:22.738Z,34.00
2018-08-07T13:39:25.019Z,34.10
2018-08-07T13:44:27.214Z,34.10
2018-08-07T13:49:29.405Z,34.00
2018-08-07T13:54:31.597Z,33.80
2018-08-07T13:59:33.810Z,33.70
2018-08-07T14:04:36.005Z,33.80
2018-08-07T14:09:38.201Z,33.60
2018-08-07T14:14:40.405Z,33.20
2018-08-07T14:19:42.549Z,32.80
2018-08-07T14:24:44.841Z,31.90
2018-08-07T14:29:47.064Z,26.20
2018-08-07T14:34:49.241Z,24.70
2018-08-07T14:39:51.437Z,23.00
2018-08-07T14:44:53.593Z,21.70
2018-08-07T14:49:55.793Z,21.30
2018-08-07T14:54:57.987Z,22.30
2018-08-07T15:00:00.226Z,22.30
2018-08-07T15:05:02.422Z,22.10
2018-08-07T15:10:06.854Z,22.20
2018-08-07T15:15:13.045Z,23.00
2018-08-07T15:20:16.965Z,23.00
2018-08-07T15:25:19.879Z,23.20
2018-08-07T15:30:23.329Z,23.70
2018-08-07T15:35:26.961Z,23.90
2018-08-07T15:40:29.146Z,24.10
2018-08-07T15:45:31.371Z,24.50
2018-08-07T15:50:33.495Z,25.10
2018-08-07T15:55:35.705Z,25.50
2018-08-07T16:00:37.913Z,25.30
2018-08-07T16:05:40.219Z,25.30
2018-08-07T16:10:42.405Z,25.20
2018-08-07T16:15:44.617Z,25.50
2018-08-07T16:20:46.837Z,25.30
2018-08-07T16:25:49.001Z,25.50
2018-08-07T16:30:51.190Z,25.10
2018-08-07T16:35:53.373Z,24.90
2018-08-07T16:40:55.588Z,24.80
2018-08-07T16:45:57.774Z,24.50
2018-08-07T16:50:59.949Z,24.70
2018-08-07T16:56:02.142Z,24.80
2018-08-07T17:01:04.449Z,24.90
2018-08-07T17:06:06.645Z,24.90
2018-08-07T17:11:08.861Z,25.00
2018-08-07T17:16:11.074Z,24.80
2018-08-07T17:21:13.237Z,24.80
2018-08-07T17:26:15.509Z,25.40
2018-08-07T17:31:17.801Z,25.90
2018-08-07T17:36:19.978Z,26.70
2018-08-07T17:41:22.153Z,27.40
2018-08-07T17:46:24.370Z,28.60
2018-08-07T17:51:26.628Z,28.70
2018-08-07T17:56:28.801Z,28.80
2018-08-07T18:01:31.053Z,28.60
2018-08-07T18:06:33.257Z,28.90
2018-08-07T18:11:35.891Z,28.90
2018-08-07T18:16:38.077Z,28.90
2018-08-07T18:21:40.261Z,28.90
2018-08-07T18:26:42.481Z,28.60
2018-08-07T18:31:44.669Z,28.30
2018-08-07T18:36:46.966Z,27.80
2018-08-07T18:41:49.137Z,27.30
2018-08-07T18:46:51.289Z,27.00
2018-08-07T18:51:53.500Z,26.60
2018-08-07T18:56:55.822Z,26.10
2018-08-07T19:01:57.998Z,25.80
2018-08-07T19:07:00.168Z,25.70
2018-08-07T19:12:02.361Z,25.50
2018-08-07T19:17:04.657Z,25.30
2018-08-07T19:22:06.880Z,25.20
2018-08-07T19:27:09.043Z,25.10
2018-08-07T19:32:11.304Z,25.00
2018-08-07T19:37:13.469Z,24.80
2018-08-07T19:42:15.665Z,24.80
2018-08-07T19:47:17.825Z,24.70
2018-08-07T19:52:20.033Z,24.70
2018-08-07T19:57:22.217Z,24.60
2018-08-07T20:02:24.478Z,24.60
2018-08-07T20:07:26.691Z,24.70
2018-08-07T20:12:28.866Z,24.60
2018-08-07T20:17:31.109Z,24.60
2018-08-07T20:22:33.267Z,24.50
2018-08-07T20:27:35.505Z,24.40
2018-08-07T20:32:37.879Z,24.30
2018-08-07T20:37:40.074Z,24.20
2018-08-07T20:42:42.470Z,24.20
2018-08-07T20:47:44.629Z,24.30
2018-08-07T20:52:47.050Z,24.30
2018-08-07T20:57:49.242Z,24.20
2018-08-07T21:02:51.422Z,24.40
2018-08-07T21:07:53.617Z,24.50
2018-08-07T21:12:55.999Z,24.30
2018-08-07T21:17:58.154Z,24.30
2018-08-07T21:23:00.310Z,24.40
2018-08-07T21:28:02.466Z,24.20
2018-08-07T21:33:04.634Z,24.00
2018-08-07T21:38:06.782Z,24.30
2018-08-07T21:43:08.917Z,24.20
2018-08-07T21:48:11.065Z,24.00
2018-08-07T21:53:13.193Z,23.80
2018-08-07T21:58:15.405Z,23.60
2018-08-07T22:03:17.693Z,23.70
2018-08-07T22:08:19.873Z,23.60
2018-08-07T22:13:22.002Z,23.40
2018-08-07T22:18:24.169Z,23.50
2018-08-07T22:23:26.353Z,23.40
2018-08-07T22:28:28.505Z,23.80
2018-08-07T22:33:30.657Z,23.70
2018-08-07T22:38:32.799Z,23.70
2018-08-07T22:43:34.952Z,23.80
2018-08-07T22:48:37.077Z,23.50
2018-08-07T22:53:39.240Z,23.00
2018-08-07T22:58:41.401Z,22.80
2018-08-07T23:03:43.596Z,22.80
2018-08-07T23:08:45.778Z,23.00
2018-08-07T23:13:47.941Z,22.90
2018-08-07T23:18:50.093Z,23.00
2018-08-07T23:23:52.244Z,22.70
2018-08-07T23:28:54.389Z,22.60
2018-08-07T23:33:56.540Z,22.60
2018-08-07T23:38:58.714Z,23.00
2018-08-07T23:44:00.859Z,24.00
2018-08-07T23:49:03.038Z,25.60
2018-08-07T23:54:05.492Z,24.70
2018-08-07T23:59:07.625Z,24.00
